createdAt,value
2023-04-15T00:04:00.786Z,100.00
2023-04-15T00:19:02.701Z,100.00
2023-04-15T00:34:04.941Z,100.00
2023-04-15T00:49:06.642Z,100.00
2023-04-15T01:04:10.455Z,100.00
2023-04-15T01:19:12.406Z,100.00
2023-04-15T01:34:14.012Z,100.00
2023-04-15T01:49:15.888Z,100.00
2023-04-15T02:04:18.241Z,100.00
2023-04-15T02:19:19.854Z,100.00
2023-04-15T02:34:21.676Z,100.00
2023-04-15T02:49:23.422Z,100.00
2023-04-15T03:04:25.265Z,100.00
2023-04-15T03:19:27.010Z,100.00
2023-04-15T03:34:28.783Z,100.00
2023-04-15T03:49:30.643Z,100.00
2023-04-15T04:04:32.686Z,100.00
2023-04-15T04:19:34.502Z,100.00
2023-04-15T04:34:36.327Z,100.00
2023-04-15T04:49:37.973Z,100.00
2023-04-15T05:04:39.679Z,100.00
2023-04-15T05:19:41.432Z,100.00
2023-04-15T05:34:43.021Z,100.00
2023-04-15T05:49:47.538Z,100.00
2023-04-15T06:04:49.265Z,100.00
2023-04-15T06:19:55.673Z,100.00
2023-04-15T06:34:57.371Z,100.00
2023-04-15T06:49:59.093Z,100.00
2023-04-15T07:05:00.878Z,100.00
2023-04-15T07:20:02.463Z,100.00
2023-04-15T07:35:04.230Z,100.00
2023-04-15T07:50:07.066Z,100.00
2023-04-15T08:05:09.426Z,100.00
2023-04-15T08:20:11.014Z,100.00
2023-04-15T08:35:14.549Z,92.86
2023-04-15T08:50:16.150Z,81.42
2023-04-15T09:05:17.877Z,71.28
2023-04-15T09:20:19.590Z,68.30
2023-04-15T09:35:21.195Z,69.54
2023-04-15T09:50:22.977Z,73.56
2023-04-15T10:05:24.601Z,70.71
2023-04-15T10:20:26.390Z,71.11
2023-04-15T10:35:28.164Z,72.02
2023-04-15T10:50:30.132Z,81.08
2023-04-15T11:05:31.733Z,78.97
2023-04-15T11:20:33.390Z,78.38
2023-04-15T11:35:35.093Z,72.73
2023-04-15T11:50:36.964Z,66.57
2023-04-15T12:05:38.533Z,72.71
2023-04-15T12:20:40.103Z,66.60
2023-04-15T12:35:41.672Z,65.80
2023-04-15T12:50:43.230Z,61.96
2023-04-15T13:05:45.047Z,60.54
2023-04-15T13:20:46.770Z,56.94
2023-04-15T13:35:48.388Z,57.41
2023-04-15T13:50:49.988Z,59.91
2023-04-15T14:05:56.352Z,64.37
2023-04-15T14:20:57.920Z,74.82
2023-04-15T14:35:59.641Z,89.00
2023-04-15T14:51:01.276Z,100.00
2023-04-15T15:06:03.262Z,100.00
2023-04-15T15:21:04.803Z,100.00
2023-04-15T15:36:12.683Z,100.00
2023-04-15T15:51:14.388Z,100.00
2023-04-15T16:06:16.799Z,100.00
2023-04-15T16:21:19.679Z,100.00
2023-04-15T16:36:21.336Z,100.00
2023-04-15T16:51:22.978Z,100.00
2023-04-15T17:06:24.561Z,100.00
2023-04-15T17:21:26.140Z,100.00
2023-04-15T17:36:31.113Z,100.00
2023-04-15T17:51:32.671Z,100.00
2023-04-15T18:06:41.638Z,100.00
2023-04-15T18:21:43.231Z,100.00
2023-04-15T18:36:44.830Z,100.00
2023-04-15T18:51:46.669Z,100.00
2023-04-15T19:06:48.221Z,100.00
2023-04-15T19:21:50.197Z,100.00
2023-04-15T19:36:52.003Z,100.00
2023-04-15T19:51:53.591Z,100.00
2023-04-15T20:06:56.016Z,100.00
2023-04-15T20:21:57.596Z,100.00
2023-04-15T20:36:59.157Z,100.00
2023-04-15T20:52:00.986Z,100.00
2023-04-15T21:07:02.634Z,100.00
2023-04-15T21:22:04.410Z,100.00
2023-04-15T21:37:06.013Z,100.00
2023-04-15T21:52:07.616Z,100.00
2023-04-15T22:07:09.228Z,100.00
2023-04-15T22:22:10.812Z,100.00
2023-04-15T22:37:12.483Z,100.00
2023-04-15T22:52:20.220Z,100.00
2023-04-15T23:07:31.362Z,100.00
2023-04-15T23:22:32.989Z,100.00
2023-04-15T23:37:34.558Z,100.00
2023-04-15T23:52:36.703Z,100.00
